Laguna de Pozuelos, Argentina
Current Conditions -  °F | °C
As of 8:00 PM on Monday 20 Oct 2014 (Local Time) from SLTJ Reporting Station
Broken Clouds Broken Clouds  
Wind Chill: 61°   Ceiling: 10000
Heat Index: 61°   Visibility: 6mi
Dew Point: 55°   Wind: 0mph
Humidity: 82%   Direction: NA
Pressure: 30.21"   Gusts: NA
Location:  22.37°S, 66.02°W
Report Text: SLTJ 202300Z 00000KT 9999 SCT025 BKN100 16/13 Q1023
Loading
Personal Weather Stations






























Interactive Weather Map
Tropical Storm Tracking
New forecast layout! Learn more

10-Day Weather Forecast

Advertisements
Track Severe Weather on mobile